Woodbridge, California
Current Conditions -  °F | °C
As of 9:55 PM on Friday 24 Oct 2014 (Local Time) from KSCK Reporting Station
Clear Clear  
Wind Chill: 62°   Ceiling: Unl
Heat Index: 62°   Visibility: 10mi
Dew Point: 55°   Wind: 3mph
Humidity: 78%   Direction: 30°NNE
Pressure: 29.9"   Gusts: NA
Location:  38.15°N, 121.3°W
Report Text: KSCK 250455Z AUTO 03003KT 10SM CLR 17/13 A2990 RMK AO2 SLP125 T01670128
Loading
Personal Weather Stations






























Interactive Weather Map
Tropical Storm Tracking
New forecast layout! Learn more

10-Day Weather Forecast

Advertisements
Track Severe Weather on mobile